createdAt,value
2022-11-07T00:01:54.941Z,1.88
2022-11-07T00:04:23.237Z,1.40
2022-11-07T00:06:51.341Z,1.50
2022-11-07T00:09:19.644Z,1.60
2022-11-07T00:11:47.857Z,1.70
2022-11-07T00:14:18.638Z,1.50
2022-11-07T00:16:48.353Z,1.40
2022-11-07T00:19:18.730Z,1.70
2022-11-07T00:21:47.149Z,1.50
2022-11-07T00:24:17.583Z,1.50
2022-11-07T00:26:46.089Z,1.20
2022-11-07T00:29:15.257Z,1.60
2022-11-07T00:31:45.245Z,1.20
2022-11-07T00:34:13.795Z,1.45
2022-11-07T00:36:41.966Z,1.38
2022-11-07T00:39:12.259Z,1.10
2022-11-07T00:41:40.409Z,1.10
2022-11-07T00:44:08.576Z,1.10
2022-11-07T00:46:36.729Z,1.10
2022-11-07T00:49:06.379Z,1.00
2022-11-07T00:51:34.541Z,1.08
2022-11-07T00:54:03.437Z,0.90
2022-11-07T00:56:31.747Z,1.10
2022-11-07T00:59:01.110Z,1.00
2022-11-07T01:01:31.320Z,1.00
2022-11-07T01:04:28.411Z,1.00
2022-11-07T01:06:58.793Z,1.20
2022-11-07T01:09:27.180Z,1.00
2022-11-07T01:11:55.352Z,1.50
2022-11-07T01:14:24.252Z,1.50
2022-11-07T01:16:52.843Z,1.30
2022-11-07T01:19:21.364Z,1.40
2022-11-07T01:21:49.723Z,1.50
2022-11-07T01:24:19.512Z,1.45
2022-11-07T01:26:48.913Z,1.40
2022-11-07T01:29:17.950Z,1.60
2022-11-07T01:31:46.348Z,1.63
2022-11-07T01:34:14.508Z,1.95
2022-11-07T01:36:42.675Z,1.73
2022-11-07T01:39:10.956Z,1.50
2022-11-07T01:41:41.445Z,1.70
2022-11-07T01:44:46.911Z,1.25
2022-11-07T01:47:15.368Z,1.58
2022-11-07T01:49:44.782Z,1.20
2022-11-07T01:52:18.568Z,1.42
2022-11-07T01:54:50.876Z,1.50
2022-11-07T01:57:24.897Z,1.60
2022-11-07T01:59:56.358Z,1.48
2022-11-07T02:02:27.746Z,1.60
2022-11-07T02:04:57.471Z,1.77
2022-11-07T02:07:26.138Z,1.70
2022-11-07T02:09:55.760Z,1.30
2022-11-07T02:12:27.910Z,1.55
2022-11-07T02:14:57.790Z,1.17
2022-11-07T02:17:26.061Z,1.00
2022-11-07T02:19:56.800Z,1.00
2022-11-07T02:22:34.843Z,1.30
2022-11-07T02:25:07.825Z,1.20
2022-11-07T02:27:37.210Z,1.23
2022-11-07T02:30:08.765Z,0.90
2022-11-07T02:32:36.988Z,0.90
2022-11-07T02:35:07.632Z,1.00
2022-11-07T02:37:39.514Z,1.40
2022-11-07T02:40:11.633Z,1.08
2022-11-07T02:42:46.409Z,1.05
2022-11-07T02:45:17.288Z,1.10
2022-11-07T02:47:45.690Z,1.50
2022-11-07T02:50:15.948Z,2.30
2022-11-07T02:52:44.487Z,2.70
2022-11-07T02:55:15.952Z,3.13
2022-11-07T02:57:44.555Z,3.00
2022-11-07T03:00:15.280Z,3.40
2022-11-07T03:02:47.106Z,3.10
2022-11-07T03:05:16.902Z,2.00
2022-11-07T03:07:48.022Z,2.55
2022-11-07T03:10:18.576Z,2.10
2022-11-07T03:12:47.064Z,2.35
2022-11-07T03:15:15.595Z,1.70
2022-11-07T03:17:44.541Z,2.30
2022-11-07T03:20:13.356Z,1.90
2022-11-07T03:22:41.574Z,2.33
2022-11-07T03:25:09.998Z,2.40
2022-11-07T03:27:47.435Z,2.70
2022-11-07T03:30:16.194Z,2.60
2022-11-07T03:32:44.505Z,2.70
2022-11-07T03:35:13.055Z,2.45
2022-11-07T03:37:41.315Z,2.03
2022-11-07T03:40:11.110Z,2.58
2022-11-07T03:42:41.717Z,1.60
2022-11-07T03:45:11.894Z,2.38
2022-11-07T03:47:41.639Z,2.70
2022-11-07T03:50:12.390Z,2.22
2022-11-07T03:52:40.624Z,2.50
2022-11-07T03:55:09.822Z,2.90
2022-11-07T03:57:38.257Z,2.70
2022-11-07T04:00:09.371Z,3.10
2022-11-07T04:02:40.796Z,2.60
2022-11-07T04:05:09.850Z,1.90
2022-11-07T04:07:38.068Z,1.70
2022-11-07T04:10:06.903Z,1.58
2022-11-07T04:12:52.703Z,1.80
2022-11-07T04:15:39.665Z,1.63
2022-11-07T04:18:07.867Z,1.50
2022-11-07T04:20:36.231Z,1.30
2022-11-07T04:23:04.511Z,1.63
2022-11-07T04:25:49.889Z,2.00
2022-11-07T04:28:18.112Z,1.70
2022-11-07T04:30:47.729Z,1.60
2022-11-07T04:33:16.276Z,1.05
2022-11-07T04:35:44.711Z,1.45
2022-11-07T04:38:13.162Z,0.90
2022-11-07T04:40:41.414Z,0.90
2022-11-07T04:43:10.888Z,0.90
2022-11-07T04:45:39.969Z,1.55
2022-11-07T04:48:10.838Z,1.35
2022-11-07T04:50:39.183Z,1.00
2022-11-07T04:53:07.434Z,1.25
2022-11-07T04:55:35.598Z,1.33
2022-11-07T04:58:03.792Z,1.10
2022-11-07T05:00:32.628Z,1.30
2022-11-07T05:03:01.845Z,1.30
2022-11-07T05:05:31.548Z,1.40
2022-11-07T05:07:59.730Z,1.27
2022-11-07T05:10:29.844Z,1.20
2022-11-07T05:12:58.093Z,1.10
2022-11-07T05:15:26.345Z,1.27
2022-11-07T05:17:54.513Z,1.10
2022-11-07T05:20:32.299Z,1.23
2022-11-07T05:23:19.950Z,1.05
2022-11-07T05:25:49.804Z,1.20
2022-11-07T05:28:25.696Z,1.10
2022-11-07T05:31:00.173Z,1.40
2022-11-07T05:33:28.890Z,1.33
2022-11-07T05:36:10.011Z,1.20
2022-11-07T05:38:38.423Z,1.33
2022-11-07T05:41:06.789Z,1.40
2022-11-07T05:43:35.027Z,1.10
2022-11-07T05:46:03.317Z,1.40
2022-11-07T05:48:31.638Z,1.20
2022-11-07T05:51:01.495Z,1.25
2022-11-07T05:53:30.701Z,0.97
2022-11-07T05:55:58.949Z,1.40
2022-11-07T05:58:27.121Z,1.02
2022-11-07T06:00:55.349Z,1.20
2022-11-07T06:03:23.572Z,1.20
2022-11-07T06:05:51.763Z,1.20
2022-11-07T06:08:21.324Z,1.20
2022-11-07T06:10:49.627Z,1.30
2022-11-07T06:13:18.714Z,1.60
2022-11-07T06:15:47.429Z,1.20
2022-11-07T06:18:17.955Z,1.40
2022-11-07T06:20:46.235Z,1.20
2022-11-07T06:23:15.179Z,1.35
2022-11-07T06:25:45.095Z,1.20
2022-11-07T06:28:14.753Z,1.30
2022-11-07T06:30:43.851Z,1.58
2022-11-07T06:33:14.701Z,1.48
2022-11-07T06:35:43.308Z,1.40
2022-11-07T06:38:13.297Z,1.90
2022-11-07T06:40:42.681Z,1.60
2022-11-07T06:43:14.668Z,1.60
2022-11-07T06:45:43.819Z,1.40
2022-11-07T06:48:14.329Z,1.50
2022-11-07T06:50:42.557Z,1.30
2022-11-07T06:53:13.927Z,1.40
2022-11-07T06:55:42.528Z,1.48
2022-11-07T06:58:12.266Z,1.40
2022-11-07T07:00:40.529Z,1.10
2022-11-07T07:03:08.809Z,1.30
2022-11-07T07:05:37.150Z,1.35
2022-11-07T07:08:07.448Z,1.52
2022-11-07T07:10:39.148Z,1.27
2022-11-07T07:13:07.686Z,1.27
2022-11-07T07:15:51.704Z,1.20
2022-11-07T07:18:20.192Z,0.90
2022-11-07T07:20:48.618Z,1.10
2022-11-07T07:23:17.127Z,1.20
2022-11-07T07:25:45.681Z,1.30
2022-11-07T07:28:14.105Z,1.20
2022-11-07T07:30:48.875Z,1.70
2022-11-07T07:33:20.303Z,1.40
2022-11-07T07:35:48.532Z,1.70
2022-11-07T07:38:16.993Z,1.70
2022-11-07T07:40:45.210Z,2.00
2022-11-07T07:43:13.905Z,1.70
2022-11-07T07:45:43.637Z,1.97
2022-11-07T07:48:11.859Z,1.75
2022-11-07T07:50:40.012Z,1.75
2022-11-07T07:53:09.398Z,1.60
2022-11-07T07:55:37.689Z,1.33
2022-11-07T07:58:05.956Z,1.70
2022-11-07T08:00:34.738Z,1.30
2022-11-07T08:03:05.424Z,1.30
2022-11-07T08:05:33.886Z,1.70
2022-11-07T08:08:02.250Z,0.90
2022-11-07T08:10:45.899Z,1.50
2022-11-07T08:13:14.403Z,1.20
2022-11-07T08:15:42.749Z,1.52
2022-11-07T08:18:12.442Z,1.20
2022-11-07T08:20:40.639Z,1.40
2022-11-07T08:23:16.093Z,1.23
2022-11-07T08:25:50.036Z,1.23
2022-11-07T08:28:18.532Z,1.90
2022-11-07T08:30:47.076Z,1.10
2022-11-07T08:33:17.076Z,1.33
2022-11-07T08:35:45.532Z,1.60
2022-11-07T08:38:13.760Z,1.60
2022-11-07T08:40:41.980Z,1.50
2022-11-07T08:43:10.157Z,1.60
2022-11-07T08:45:38.832Z,1.20
2022-11-07T08:48:07.528Z,1.48
2022-11-07T08:50:37.143Z,2.20
2022-11-07T08:53:05.336Z,1.60
2022-11-07T08:55:33.565Z,1.73
2022-11-07T08:58:03.324Z,1.90
2022-11-07T09:00:32.157Z,1.95
2022-11-07T09:05:53.119Z,1.42
2022-11-07T09:08:21.295Z,1.98
2022-11-07T09:10:49.591Z,1.40
2022-11-07T09:13:18.092Z,1.40
2022-11-07T09:15:50.991Z,1.58
2022-11-07T09:18:20.670Z,1.40
2022-11-07T09:20:48.862Z,1.80
2022-11-07T09:23:18.864Z,1.30
2022-11-07T09:25:47.927Z,1.67
2022-11-07T09:28:16.513Z,1.43
2022-11-07T09:30:44.719Z,1.25
2022-11-07T09:33:13.169Z,1.60
2022-11-07T09:35:41.620Z,1.83
2022-11-07T09:38:09.805Z,2.17
2022-11-07T09:40:48.390Z,1.60
2022-11-07T09:43:31.652Z,1.45
2022-11-07T09:46:05.834Z,1.40
2022-11-07T09:48:42.402Z,1.50
2022-11-07T09:51:16.679Z,1.43
2022-11-07T09:53:48.738Z,1.00
2022-11-07T09:56:18.349Z,1.60
2022-11-07T09:58:51.570Z,1.40
2022-11-07T10:01:22.165Z,2.30
2022-11-07T10:04:23.161Z,1.40
2022-11-07T10:06:45.251Z,1.50
2022-11-07T10:09:19.566Z,1.80
2022-11-07T10:11:58.315Z,1.47
2022-11-07T10:14:38.746Z,1.10
2022-11-07T10:17:16.204Z,1.15
2022-11-07T10:19:56.581Z,1.90
2022-11-07T10:22:47.259Z,1.13
2022-11-07T10:25:22.108Z,2.00
2022-11-07T10:28:00.297Z,0.85
2022-11-07T10:30:28.452Z,1.70
2022-11-07T10:33:04.463Z,1.10
2022-11-07T10:35:34.980Z,1.30
2022-11-07T10:38:15.580Z,1.27
2022-11-07T10:40:46.107Z,1.70
2022-11-07T10:43:29.403Z,2.90
2022-11-07T10:45:58.609Z,1.88
2022-11-07T10:48:29.522Z,2.40
2022-11-07T10:50:58.510Z,1.48
2022-11-07T10:53:28.133Z,1.88
2022-11-07T10:55:57.107Z,2.30
2022-11-07T10:58:29.918Z,1.70
2022-11-07T11:01:00.232Z,1.90
2022-11-07T11:03:43.263Z,1.30
2022-11-07T11:06:22.390Z,1.60
2022-11-07T11:08:52.147Z,1.27
2022-11-07T11:11:28.883Z,1.90
2022-11-07T11:14:11.890Z,1.65
2022-11-07T11:16:42.138Z,1.50
2022-11-07T11:19:22.296Z,1.63
2022-11-07T11:21:52.682Z,1.67
2022-11-07T11:24:31.493Z,1.50
2022-11-07T11:27:03.699Z,1.30
2022-11-07T11:29:39.795Z,1.10
2022-11-07T11:32:17.645Z,1.50
2022-11-07T11:34:54.799Z,1.25
2022-11-07T11:37:24.934Z,1.57
2022-11-07T11:40:07.475Z,1.23
2022-11-07T11:42:46.747Z,1.52
2022-11-07T11:45:20.295Z,1.80
2022-11-07T11:47:56.856Z,1.40
2022-11-07T11:50:34.043Z,1.37
2022-11-07T11:53:02.337Z,1.27
2022-11-07T11:55:38.923Z,1.75
2022-11-07T11:58:19.466Z,1.90
2022-11-07T12:00:56.907Z,1.60
2022-11-07T12:04:02.467Z,1.65
2022-11-07T12:06:37.681Z,1.70
2022-11-07T12:09:19.515Z,1.90
2022-11-07T12:12:00.826Z,1.73
2022-11-07T12:14:47.275Z,1.77
2022-11-07T12:17:23.635Z,1.35
2022-11-07T12:19:57.911Z,1.52
2022-11-07T12:22:40.321Z,1.23
2022-11-07T12:25:15.240Z,1.33
2022-11-07T12:27:50.867Z,1.30
2022-11-07T12:30:25.385Z,1.40
2022-11-07T12:33:06.278Z,1.67
2022-11-07T12:35:45.021Z,1.55
2022-11-07T12:38:43.859Z,1.67
2022-11-07T12:41:20.377Z,1.57
2022-11-07T12:44:01.894Z,1.40
2022-11-07T12:46:43.859Z,2.42
2022-11-07T12:49:47.464Z,1.40
2022-11-07T12:52:41.882Z,2.03
2022-11-07T12:55:21.194Z,2.00
2022-11-07T12:57:52.714Z,1.60
2022-11-07T13:00:29.068Z,1.27
2022-11-07T13:03:22.091Z,1.70
2022-11-07T13:06:00.980Z,1.20
2022-11-07T13:08:35.988Z,1.80
2022-11-07T13:11:10.669Z,1.92
2022-11-07T13:13:56.248Z,1.30
2022-11-07T13:16:27.898Z,1.80
2022-11-07T13:18:56.394Z,1.87
2022-11-07T13:21:24.549Z,2.27
2022-11-07T13:23:54.282Z,1.27
2022-11-07T13:26:47.489Z,1.70
2022-11-07T13:29:37.863Z,1.55
2022-11-07T13:32:09.060Z,1.40
2022-11-07T13:34:56.246Z,1.80
2022-11-07T13:37:28.094Z,1.65
2022-11-07T13:40:04.447Z,1.20
2022-11-07T13:42:35.263Z,1.40
2022-11-07T13:45:18.926Z,1.45
2022-11-07T13:47:47.846Z,1.40
2022-11-07T13:50:22.417Z,2.47
2022-11-07T13:52:59.824Z,1.20
2022-11-07T13:55:36.116Z,1.70
2022-11-07T13:58:09.075Z,1.50
2022-11-07T14:00:38.694Z,1.50
2022-11-07T14:03:07.136Z,1.33
2022-11-07T14:05:38.107Z,1.30
2022-11-07T14:08:08.991Z,1.60
2022-11-07T14:10:44.546Z,2.60
2022-11-07T14:13:20.629Z,3.90
2022-11-07T14:15:50.878Z,6.07
2022-11-07T14:18:20.572Z,2.10
2022-11-07T14:20:49.969Z,2.58
2022-11-07T14:23:21.711Z,2.10
2022-11-07T14:25:58.577Z,2.40
2022-11-07T14:28:31.052Z,3.10
2022-11-07T14:30:59.620Z,2.10
2022-11-07T14:33:28.070Z,2.27
2022-11-07T14:35:56.263Z,2.00
2022-11-07T14:38:26.170Z,2.00
2022-11-07T14:40:59.455Z,3.13
2022-11-07T14:43:29.036Z,3.17
2022-11-07T14:46:12.971Z,5.43
2022-11-07T14:48:44.046Z,3.10
2022-11-07T14:51:14.071Z,3.08
2022-11-07T14:53:50.990Z,2.22
2022-11-07T14:56:22.768Z,1.30
2022-11-07T14:58:51.105Z,1.40
2022-11-07T15:01:27.974Z,1.30
2022-11-07T15:03:58.860Z,1.58
2022-11-07T15:06:33.341Z,1.50
2022-11-07T15:09:03.597Z,1.60
2022-11-07T15:11:35.479Z,2.30
2022-11-07T15:14:05.688Z,1.50
2022-11-07T15:16:37.906Z,2.40
2022-11-07T15:19:08.681Z,1.30
2022-11-07T15:21:38.863Z,1.70
2022-11-07T15:24:26.695Z,1.30
2022-11-07T15:27:04.032Z,1.40
2022-11-07T15:29:34.385Z,1.70
2022-11-07T15:32:14.792Z,1.25
2022-11-07T15:35:03.848Z,1.95
2022-11-07T15:37:31.983Z,1.20
2022-11-07T15:40:00.237Z,1.80
2022-11-07T15:42:30.391Z,1.90
2022-11-07T15:44:58.689Z,9.38
2022-11-07T15:47:26.869Z,5.38
2022-11-07T15:49:55.099Z,2.10
2022-11-07T15:52:23.420Z,2.00
2022-11-07T15:54:51.644Z,2.20
2022-11-07T15:57:20.851Z,1.80
2022-11-07T15:59:50.634Z,1.60
2022-11-07T16:02:19.148Z,1.20
2022-11-07T16:04:47.517Z,1.65
2022-11-07T16:07:18.626Z,1.33
2022-11-07T16:09:48.612Z,1.63
2022-11-07T16:12:18.517Z,1.20
2022-11-07T16:14:47.357Z,1.60
2022-11-07T16:17:19.118Z,2.10
2022-11-07T16:19:47.447Z,1.50
2022-11-07T16:22:16.834Z,1.30
2022-11-07T16:24:45.076Z,1.70
2022-11-07T16:27:18.356Z,1.60
2022-11-07T16:29:46.823Z,1.80
2022-11-07T16:32:18.499Z,1.70
2022-11-07T16:34:48.729Z,1.55
2022-11-07T16:37:16.943Z,1.70
2022-11-07T16:39:46.029Z,6.60
2022-11-07T16:42:16.276Z,2.50
2022-11-07T16:44:44.867Z,1.70
2022-11-07T16:47:15.946Z,1.45
2022-11-07T16:49:44.385Z,2.10
2022-11-07T16:52:16.487Z,7.43
2022-11-07T16:54:44.802Z,9.25
2022-11-07T16:57:14.403Z,10.70
2022-11-07T16:59:43.728Z,13.87
2022-11-07T17:02:20.766Z,15.30
2022-11-07T17:04:50.183Z,7.20
2022-11-07T17:07:21.444Z,3.10
2022-11-07T17:09:49.963Z,4.40
2022-11-07T17:12:21.419Z,5.00
2022-11-07T17:14:49.824Z,4.93
2022-11-07T17:17:19.572Z,4.70
2022-11-07T17:19:48.078Z,7.30
2022-11-07T17:22:17.754Z,5.28
2022-11-07T17:24:48.846Z,5.18
2022-11-07T17:27:22.034Z,4.40
2022-11-07T17:29:50.728Z,4.10
2022-11-07T17:32:19.286Z,2.17
2022-11-07T17:34:54.962Z,2.40
2022-11-07T17:37:37.225Z,1.80
2022-11-07T17:40:07.793Z,1.70
2022-11-07T17:42:38.227Z,1.20
2022-11-07T17:45:07.812Z,1.05
2022-11-07T17:47:36.108Z,1.60
2022-11-07T17:50:05.317Z,1.60
2022-11-07T17:52:33.511Z,1.60
2022-11-07T17:55:01.732Z,1.45
2022-11-07T17:57:31.492Z,1.52
2022-11-07T17:59:59.744Z,2.10
2022-11-07T18:02:28.214Z,2.10
2022-11-07T18:04:56.527Z,2.60
2022-11-07T18:07:25.023Z,2.28
2022-11-07T18:09:54.836Z,2.50
2022-11-07T18:12:23.428Z,2.60
2022-11-07T18:14:52.953Z,2.80
2022-11-07T18:17:21.135Z,1.80
2022-11-07T18:19:49.578Z,1.80
2022-11-07T18:22:17.830Z,1.40
2022-11-07T18:24:46.674Z,1.60
2022-11-07T18:27:15.296Z,1.60
2022-11-07T18:29:43.531Z,1.50
2022-11-07T18:32:13.192Z,1.60
2022-11-07T18:34:41.528Z,1.67
2022-11-07T18:37:10.046Z,1.80
2022-11-07T18:39:38.938Z,1.70
2022-11-07T18:42:07.312Z,1.60
2022-11-07T18:44:35.495Z,1.30
2022-11-07T18:47:03.773Z,1.60
2022-11-07T18:49:33.450Z,1.50
2022-11-07T18:52:01.706Z,1.40
2022-11-07T18:54:29.940Z,2.03
2022-11-07T18:56:58.293Z,1.50
2022-11-07T18:59:27.123Z,1.67
2022-11-07T19:01:55.391Z,1.50
2022-11-07T19:04:23.738Z,1.40
2022-11-07T19:06:59.037Z,1.60
2022-11-07T19:09:29.002Z,1.90
2022-11-07T19:11:57.941Z,1.90
2022-11-07T19:14:26.703Z,1.60
2022-11-07T19:16:55.427Z,1.15
2022-11-07T19:19:23.845Z,1.40
2022-11-07T19:21:53.492Z,1.20
2022-11-07T19:24:21.706Z,1.42
2022-11-07T19:26:50.092Z,1.30
2022-11-07T19:29:18.454Z,1.75
2022-11-07T19:31:46.669Z,1.50
2022-11-07T19:34:17.067Z,1.48
2022-11-07T19:36:45.301Z,1.40
2022-11-07T19:39:14.881Z,1.20
2022-11-07T19:41:43.070Z,1.30
2022-11-07T19:44:11.755Z,1.20
2022-11-07T19:46:39.944Z,1.52
2022-11-07T19:49:08.484Z,1.20
2022-11-07T19:51:36.801Z,1.52
2022-11-07T19:54:07.562Z,1.40
2022-11-07T19:56:37.501Z,1.23
2022-11-07T19:59:05.834Z,1.20
2022-11-07T20:01:35.719Z,1.30
2022-11-07T20:04:04.544Z,1.30
2022-11-07T20:06:36.496Z,2.00
2022-11-07T20:09:07.030Z,1.40
2022-11-07T20:11:37.860Z,1.35
2022-11-07T20:14:06.801Z,1.40
2022-11-07T20:16:36.759Z,1.40
2022-11-07T20:19:05.885Z,1.70
2022-11-07T20:21:34.785Z,1.40
2022-11-07T20:24:03.032Z,1.90
2022-11-07T20:26:32.627Z,1.50
2022-11-07T20:29:02.855Z,1.25
2022-11-07T20:31:33.769Z,1.30
2022-11-07T20:34:03.040Z,1.50
2022-11-07T20:36:31.654Z,1.27
2022-11-07T20:39:00.971Z,1.33
2022-11-07T20:41:29.198Z,1.80
2022-11-07T20:43:59.942Z,1.30
2022-11-07T20:46:29.522Z,1.60
2022-11-07T20:48:59.530Z,1.70
2022-11-07T20:51:28.609Z,1.45
2022-11-07T20:53:59.074Z,1.85
2022-11-07T20:56:29.415Z,1.27
2022-11-07T20:58:58.775Z,1.70
2022-11-07T21:01:36.260Z,2.00
2022-11-07T21:04:06.466Z,1.60
2022-11-07T21:06:35.826Z,1.17
2022-11-07T21:09:05.133Z,2.70
2022-11-07T21:11:34.218Z,2.17
2022-11-07T21:14:02.480Z,2.55
2022-11-07T21:16:34.508Z,1.80
2022-11-07T21:19:05.071Z,2.33
2022-11-07T21:21:33.809Z,1.90
2022-11-07T21:24:02.317Z,2.95
2022-11-07T21:26:33.433Z,3.10
2022-11-07T21:29:03.427Z,4.03
2022-11-07T21:31:33.858Z,6.07
2022-11-07T21:34:02.127Z,6.10
2022-11-07T21:36:31.942Z,10.43
2022-11-07T21:39:01.572Z,4.20
2022-11-07T21:41:30.930Z,4.22
2022-11-07T21:43:59.540Z,7.68
2022-11-07T21:46:30.382Z,8.75
2022-11-07T21:49:02.953Z,3.85
2022-11-07T21:51:32.456Z,3.95
2022-11-07T21:54:01.631Z,7.90
2022-11-07T21:56:31.317Z,14.70
2022-11-07T21:59:00.878Z,10.57
2022-11-07T22:01:30.366Z,18.70
2022-11-07T22:04:06.833Z,13.20
2022-11-07T22:06:37.759Z,13.73
2022-11-07T22:09:07.307Z,10.02
2022-11-07T22:11:35.949Z,7.88
2022-11-07T22:14:04.542Z,3.92
2022-11-07T22:16:32.929Z,2.72
2022-11-07T22:19:02.799Z,2.33
2022-11-07T22:21:31.388Z,2.05
2022-11-07T22:23:59.776Z,2.10
2022-11-07T22:26:28.992Z,1.70
2022-11-07T22:28:57.223Z,1.73
2022-11-07T22:31:28.486Z,1.42
2022-11-07T22:33:57.926Z,1.60
2022-11-07T22:36:27.945Z,1.90
2022-11-07T22:38:58.840Z,1.42
2022-11-07T22:41:29.043Z,1.50
2022-11-07T22:43:58.233Z,1.60
2022-11-07T22:46:28.465Z,1.45
2022-11-07T22:48:57.803Z,1.70
2022-11-07T22:51:29.570Z,2.17
2022-11-07T22:53:58.802Z,1.50
2022-11-07T22:56:27.565Z,1.50
2022-11-07T22:58:56.768Z,1.50
2022-11-07T23:01:27.549Z,1.70
2022-11-07T23:03:57.017Z,1.60
2022-11-07T23:06:28.561Z,1.50
2022-11-07T23:08:57.854Z,1.80
2022-11-07T23:14:17.432Z,1.40
2022-11-07T23:16:47.881Z,1.40
2022-11-07T23:19:18.191Z,1.50
2022-11-07T23:21:48.937Z,1.60
2022-11-07T23:24:17.553Z,2.67
2022-11-07T23:26:45.813Z,2.10
2022-11-07T23:29:15.994Z,1.35
2022-11-07T23:31:46.845Z,1.40
2022-11-07T23:34:15.852Z,1.40
2022-11-07T23:36:45.090Z,1.42
2022-11-07T23:39:16.836Z,1.60
2022-11-07T23:41:45.650Z,1.40
2022-11-07T23:44:15.108Z,1.50
2022-11-07T23:47:01.292Z,1.60
2022-11-07T23:49:49.479Z,1.50
2022-11-07T23:52:17.851Z,1.90
2022-11-07T23:55:05.286Z,1.90
2022-11-07T23:57:55.227Z,2.33
